createdAt,value
2023-02-26T06:00:58.147Z,100466.59
2023-02-26T06:03:24.752Z,100465.72
2023-02-26T06:05:52.095Z,100477.88
2023-02-26T06:08:18.632Z,100483.09
2023-02-26T06:10:46.012Z,100490.06
2023-02-26T06:13:12.605Z,100491.69
2023-02-26T06:15:39.863Z,100497.75
2023-02-26T06:18:06.556Z,100499.53
2023-02-26T06:20:33.659Z,100505.63
2023-02-26T06:23:00.246Z,100506.41
2023-02-26T06:25:27.527Z,100510.78
2023-02-26T06:27:54.131Z,100522.97
2023-02-26T06:30:24.073Z,100529.06
2023-02-26T06:32:50.616Z,100527.28
2023-02-26T06:35:17.924Z,100535.03
2023-02-26T06:37:44.805Z,100540.16
2023-02-26T06:40:12.477Z,100541.91
2023-02-26T06:42:39.055Z,100546.25
2023-02-26T06:45:06.426Z,100549.75
2023-02-26T06:47:33.135Z,100547.09
2023-02-26T06:50:00.367Z,100561.97
2023-02-26T06:52:27.434Z,100560.13
2023-02-26T06:54:57.552Z,100561.81
2023-02-26T06:57:24.377Z,100572.41
2023-02-26T06:59:52.040Z,100564.50
2023-02-26T07:02:21.564Z,100580.28
2023-02-26T07:04:48.926Z,100576.75
2023-02-26T07:07:16.158Z,100581.19
2023-02-26T07:09:45.853Z,100595.22
2023-02-26T07:12:12.701Z,100572.59
2023-02-26T07:14:40.579Z,100596.22
2023-02-26T07:17:07.224Z,100589.22
2023-02-26T07:19:34.522Z,100587.50
2023-02-26T07:22:01.139Z,100592.75
2023-02-26T07:24:28.308Z,100585.84
2023-02-26T07:26:54.903Z,100584.25
2023-02-26T07:29:22.354Z,100596.63
2023-02-26T07:31:49.068Z,100597.50
2023-02-26T07:34:16.344Z,100588.81
2023-02-26T07:36:43.021Z,100601.97
2023-02-26T07:39:11.759Z,100598.53
2023-02-26T07:41:38.464Z,100600.41
2023-02-26T07:44:14.260Z,100613.56
2023-02-26T07:46:40.813Z,100609.25
2023-02-26T07:49:08.271Z,100617.97
2023-02-26T07:51:35.044Z,100631.16
2023-02-26T07:54:02.171Z,100629.41
2023-02-26T07:56:28.833Z,100644.31
2023-02-26T07:58:56.348Z,100637.41
2023-02-26T08:01:23.016Z,100650.66
2023-02-26T08:03:50.352Z,100645.41
2023-02-26T08:06:17.612Z,100655.00
2023-02-26T08:08:44.895Z,100665.53
2023-02-26T08:11:11.542Z,100656.72
2023-02-26T08:13:38.751Z,100661.19
2023-02-26T08:16:05.309Z,100665.75
2023-02-26T08:18:32.657Z,100675.38
2023-02-26T08:20:59.208Z,100680.72
2023-02-26T08:23:27.092Z,100680.72
2023-02-26T08:26:13.453Z,100685.09
2023-02-26T08:28:41.561Z,100690.34
2023-02-26T08:31:08.444Z,100693.84
2023-02-26T08:33:35.738Z,100698.31
2023-02-26T08:36:02.310Z,100700.97
2023-02-26T08:38:30.832Z,100696.63
2023-02-26T08:40:57.753Z,100704.59
2023-02-26T08:43:25.900Z,100708.13
2023-02-26T08:45:54.319Z,100718.75
2023-02-26T08:48:21.786Z,100710.97
2023-02-26T08:50:49.950Z,100721.44
2023-02-26T08:53:17.232Z,100710.13
2023-02-26T08:55:48.099Z,100729.44
2023-02-26T08:58:15.182Z,100720.72
2023-02-26T09:00:41.785Z,100727.72
2023-02-26T09:03:09.170Z,100733.88
2023-02-26T09:05:35.729Z,100743.50
2023-02-26T09:08:03.464Z,100738.38
2023-02-26T09:10:30.337Z,100741.84
2023-02-26T09:12:57.536Z,100745.41
2023-02-26T09:15:24.327Z,100748.97
2023-02-26T09:17:52.444Z,100765.63
2023-02-26T09:20:19.494Z,100760.47
2023-02-26T09:22:47.296Z,100758.72
2023-02-26T09:25:15.246Z,100764.81
2023-02-26T09:27:42.749Z,100767.44
2023-02-26T09:30:10.427Z,100770.13
2023-02-26T09:32:38.310Z,100771.00
2023-02-26T09:35:05.627Z,100774.63
2023-02-26T09:37:32.509Z,100785.28
2023-02-26T09:39:59.641Z,100782.78
2023-02-26T09:42:52.284Z,100792.44
2023-02-26T09:45:27.840Z,100784.66
2023-02-26T09:47:56.822Z,100776.88
2023-02-26T09:50:41.478Z,100785.75
2023-02-26T09:56:11.224Z,100788.53
2023-02-26T09:58:46.032Z,100790.31
2023-02-26T10:01:38.396Z,100805.28
2023-02-26T10:04:20.379Z,100806.25
2023-02-26T10:06:50.492Z,100820.31
2023-02-26T10:09:27.299Z,100806.47
2023-02-26T10:12:02.482Z,100826.69
2023-02-26T10:14:38.828Z,100812.63
2023-02-26T10:17:23.144Z,100807.38
2023-02-26T10:19:54.953Z,100817.09
2023-02-26T10:22:31.191Z,100824.19
2023-02-26T10:25:30.184Z,100808.47
2023-02-26T10:28:39.761Z,100812.00
2023-02-26T10:31:22.009Z,100823.50
2023-02-26T10:33:58.006Z,100820.06
2023-02-26T10:36:31.169Z,100823.63
2023-02-26T10:39:39.060Z,100828.03
2023-02-26T10:42:14.060Z,100830.69
2023-02-26T10:45:29.074Z,100834.94
2023-02-26T10:48:16.627Z,100842.00
2023-02-26T10:50:50.021Z,100835.03
2023-02-26T10:53:16.574Z,100843.78
2023-02-26T10:55:50.447Z,100842.84
2023-02-26T10:58:22.106Z,100833.22
2023-02-26T11:00:54.087Z,100835.06
2023-02-26T11:03:22.577Z,100843.94
2023-02-26T11:05:50.552Z,100828.22
2023-02-26T11:08:27.891Z,100840.50
2023-02-26T11:10:58.532Z,100834.34
2023-02-26T11:13:37.813Z,100841.34
2023-02-26T11:16:16.462Z,100829.09
2023-02-26T11:18:53.830Z,100850.16
2023-02-26T11:21:34.187Z,100829.13
2023-02-26T11:24:35.924Z,100838.69
2023-02-26T11:27:06.837Z,100844.88
2023-02-26T11:29:39.005Z,100830.84
2023-02-26T11:32:06.416Z,100829.13
2023-02-26T11:34:33.765Z,100836.97
2023-02-26T11:37:01.692Z,100824.69
2023-02-26T11:39:34.310Z,100851.03
2023-02-26T11:42:02.556Z,100838.75
2023-02-26T11:44:34.711Z,100841.31
2023-02-26T11:47:06.426Z,100838.66
2023-02-26T11:49:34.325Z,100850.88
2023-02-26T11:52:04.440Z,100841.28
2023-02-26T11:54:35.953Z,100829.00
2023-02-26T11:57:06.410Z,100851.81
2023-02-26T11:59:34.246Z,100842.16
2023-02-26T12:02:13.126Z,100836.94
2023-02-26T12:04:45.714Z,100844.00
2023-02-26T12:07:15.527Z,100832.66
2023-02-26T12:09:44.158Z,100836.19
2023-02-26T12:12:20.672Z,100830.16
2023-02-26T12:15:14.436Z,100837.19
2023-02-26T12:18:06.437Z,100842.50
2023-02-26T12:20:43.028Z,100842.44
2023-02-26T12:23:19.566Z,100854.66
2023-02-26T12:26:00.125Z,100852.84
2023-02-26T12:28:41.920Z,100833.59
2023-02-26T12:31:25.440Z,100844.94
2023-02-26T12:34:26.733Z,100839.69
2023-02-26T12:37:20.787Z,100837.97
2023-02-26T12:39:54.226Z,100839.75
2023-02-26T12:42:37.879Z,100849.38
2023-02-26T12:45:21.904Z,100851.97
2023-02-26T12:48:07.642Z,100837.13
2023-02-26T12:50:50.639Z,100846.81
2023-02-26T12:53:54.363Z,100853.00
2023-02-26T12:56:21.703Z,100851.22
2023-02-26T12:59:24.796Z,100861.66
2023-02-26T13:02:13.865Z,100865.13
2023-02-26T13:04:59.253Z,100866.88
2023-02-26T13:07:42.717Z,100861.59
2023-02-26T13:10:21.370Z,100853.75
2023-02-26T13:13:00.004Z,100855.56
2023-02-26T13:15:53.509Z,100853.78
2023-02-26T13:18:29.828Z,100852.94
2023-02-26T13:21:05.449Z,100853.00
2023-02-26T13:23:42.978Z,100855.66
2023-02-26T13:26:13.810Z,100860.03
2023-02-26T13:28:51.098Z,100852.94
2023-02-26T13:31:30.046Z,100851.13
2023-02-26T13:34:01.779Z,100852.91
2023-02-26T13:36:29.435Z,100847.66
2023-02-26T13:39:26.290Z,100845.91
2023-02-26T13:42:34.756Z,100845.97
2023-02-26T13:45:27.403Z,100837.22
2023-02-26T13:48:12.991Z,100846.03
2023-02-26T13:51:15.014Z,100848.59
2023-02-26T13:53:41.625Z,100853.03
2023-02-26T13:56:43.429Z,100849.56
2023-02-26T13:59:13.331Z,100841.66
2023-02-26T14:01:47.172Z,100849.50
2023-02-26T14:04:20.027Z,100838.97
2023-02-26T14:06:49.951Z,100842.47
2023-02-26T14:09:55.660Z,100844.25
2023-02-26T14:12:23.093Z,100839.91
2023-02-26T14:14:59.960Z,100837.25
2023-02-26T14:17:35.324Z,100828.53
2023-02-26T14:20:28.343Z,100830.28
2023-02-26T14:23:09.912Z,100844.31
2023-02-26T14:26:00.914Z,100837.31
2023-02-26T14:28:28.299Z,100847.81
2023-02-26T14:31:11.616Z,100845.19
2023-02-26T14:33:48.254Z,100854.84
2023-02-26T14:36:20.156Z,100846.03
2023-02-26T14:38:49.190Z,100853.97
2023-02-26T14:41:30.963Z,100853.09
2023-02-26T14:44:13.835Z,100855.69
2023-02-26T14:46:43.338Z,100850.44
2023-02-26T14:49:24.974Z,100846.91
2023-02-26T14:52:13.782Z,100852.19
2023-02-26T14:54:56.006Z,100858.31
2023-02-26T14:57:57.612Z,100862.69
2023-02-26T15:00:52.927Z,100860.06
2023-02-26T15:03:56.274Z,100855.69
2023-02-26T15:06:48.684Z,100860.97
2023-02-26T15:09:26.944Z,100862.72
2023-02-26T15:12:03.540Z,100868.88
2023-02-26T15:14:54.672Z,100863.63
2023-02-26T15:17:31.076Z,100863.63
2023-02-26T15:20:06.566Z,100860.97
2023-02-26T15:22:42.117Z,100870.56
2023-02-26T15:25:23.706Z,100875.84
2023-02-26T15:27:51.359Z,100874.06
2023-02-26T15:30:18.264Z,100869.66
2023-02-26T15:32:46.514Z,100878.47
2023-02-26T15:35:20.125Z,100877.59
2023-02-26T15:37:53.343Z,100872.28
2023-02-26T15:40:20.168Z,100886.34
2023-02-26T15:42:54.083Z,100880.19
2023-02-26T15:45:37.197Z,100879.28
2023-02-26T15:48:11.893Z,100875.78
2023-02-26T15:50:43.073Z,100891.56
2023-02-26T15:53:18.671Z,100890.72
2023-02-26T15:55:53.150Z,100881.00
2023-02-26T15:58:36.928Z,100890.59
2023-02-26T16:01:05.037Z,100891.44
2023-02-26T16:03:35.717Z,100889.69
2023-02-26T16:06:02.996Z,100899.34
2023-02-26T16:08:30.144Z,100891.44
2023-02-26T16:10:59.941Z,100888.81
2023-02-26T16:13:31.035Z,100898.44
2023-02-26T16:16:05.069Z,100893.16
2023-02-26T16:18:33.089Z,100896.69
2023-02-26T16:21:02.702Z,100900.19
2023-02-26T16:23:45.229Z,100894.00
2023-02-26T16:26:18.279Z,100891.34
2023-02-26T16:28:47.798Z,100899.28
2023-02-26T16:31:25.754Z,100897.53
2023-02-26T16:34:00.512Z,100908.94
2023-02-26T16:36:40.270Z,100907.16
2023-02-26T16:39:06.775Z,100922.03
2023-02-26T16:41:37.342Z,100912.41
2023-02-26T16:44:25.315Z,100927.28
2023-02-26T16:46:53.207Z,100918.47
2023-02-26T16:49:38.379Z,100928.13
2023-02-26T16:52:05.917Z,100934.31
2023-02-26T16:54:39.046Z,100922.88
2023-02-26T16:57:23.554Z,100943.06
2023-02-26T16:59:55.185Z,100941.25
2023-02-26T17:02:27.247Z,100951.78
2023-02-26T17:04:59.484Z,100948.25
2023-02-26T17:07:34.980Z,100952.63
2023-02-26T17:10:34.731Z,100957.84
2023-02-26T17:13:28.642Z,100962.25
2023-02-26T17:16:02.712Z,100963.06
2023-02-26T17:18:31.347Z,100963.91
2023-02-26T17:20:59.407Z,100969.19
2023-02-26T17:23:32.038Z,100969.19
2023-02-26T17:26:02.727Z,100976.16
2023-02-26T17:28:35.524Z,100975.25
2023-02-26T17:31:03.558Z,100979.66
2023-02-26T17:33:30.135Z,100987.50
2023-02-26T17:36:00.614Z,100976.97
2023-02-26T17:38:27.909Z,100980.44
2023-02-26T17:40:56.225Z,100980.47
2023-02-26T17:43:23.308Z,100983.09
2023-02-26T17:45:51.279Z,100988.34
2023-02-26T17:48:19.093Z,100983.94
2023-02-26T17:50:52.172Z,100990.06
2023-02-26T17:53:21.186Z,100983.00
2023-02-26T17:55:50.675Z,100998.81
2023-02-26T17:58:26.067Z,100995.25
2023-02-26T18:00:53.893Z,101001.38
2023-02-26T18:03:21.605Z,101011.88
2023-02-26T18:05:49.786Z,101010.13
2023-02-26T18:08:29.778Z,101013.59
2023-02-26T18:10:57.301Z,101017.94
2023-02-26T18:13:24.746Z,101022.34
2023-02-26T18:15:53.010Z,101017.94
2023-02-26T18:18:21.451Z,101024.06
2023-02-26T18:20:48.905Z,101025.78
2023-02-26T18:23:16.765Z,101017.88
2023-02-26T18:25:46.518Z,101016.13
2023-02-26T18:28:20.490Z,101016.97
2023-02-26T18:30:49.000Z,101017.88
2023-02-26T18:33:19.056Z,101024.84
2023-02-26T18:35:50.429Z,101013.38
2023-02-26T18:38:20.284Z,101022.09
2023-02-26T18:40:47.718Z,101020.28
2023-02-26T18:43:15.174Z,101022.91
2023-02-26T18:45:44.472Z,101025.50
2023-02-26T18:48:17.199Z,101027.22
2023-02-26T18:50:46.062Z,101021.88
2023-02-26T18:53:15.310Z,101027.97
2023-02-26T18:55:42.077Z,101030.56
2023-02-26T18:58:09.714Z,101036.66
2023-02-26T19:00:36.231Z,101031.31
2023-02-26T19:03:03.806Z,101033.91
2023-02-26T19:05:30.445Z,101028.56
2023-02-26T19:07:57.479Z,101040.81
2023-02-26T19:10:25.049Z,101030.31
2023-02-26T19:12:51.813Z,101032.94
2023-02-26T19:15:19.768Z,101039.91
2023-02-26T19:17:46.752Z,101044.28
2023-02-26T19:20:13.884Z,101047.75
2023-02-26T19:22:42.288Z,101044.22
2023-02-26T19:25:09.648Z,101051.22
2023-02-26T19:27:37.862Z,101048.50
2023-02-26T19:30:05.836Z,101049.44
2023-02-26T19:32:32.773Z,101045.00
2023-02-26T19:34:59.631Z,101056.38
2023-02-26T19:37:27.153Z,101044.94
2023-02-26T19:39:53.750Z,101055.47
2023-02-26T19:42:21.325Z,101059.84
2023-02-26T19:44:47.851Z,101058.00
2023-02-26T19:47:15.038Z,101064.94
2023-02-26T19:49:41.693Z,101068.47
2023-02-26T19:52:09.176Z,101057.91
2023-02-26T19:54:35.710Z,101075.34
2023-02-26T19:57:02.940Z,101064.81
2023-02-26T19:59:29.517Z,101073.47
2023-02-26T20:01:56.464Z,101083.13
2023-02-26T20:04:23.530Z,101077.75
2023-02-26T20:06:51.248Z,101083.84
2023-02-26T20:09:19.045Z,101085.53
2023-02-26T20:11:46.637Z,101087.19
2023-02-26T20:14:13.208Z,101083.63
2023-02-26T20:16:40.703Z,101083.56
2023-02-26T20:19:07.266Z,101091.38
2023-02-26T20:21:34.424Z,101089.59
2023-02-26T20:24:00.966Z,101090.38
2023-02-26T20:26:28.104Z,101093.88
2023-02-26T20:28:54.672Z,101101.66
2023-02-26T20:31:21.652Z,101100.69
2023-02-26T20:33:48.905Z,101105.81
2023-02-26T20:36:17.395Z,101111.00
2023-02-26T20:38:44.956Z,101112.69
2023-02-26T20:41:11.923Z,101114.38
2023-02-26T20:43:38.974Z,101116.06
2023-02-26T20:46:06.071Z,101114.31
2023-02-26T20:48:32.910Z,101121.25
2023-02-26T20:51:02.287Z,101119.47
2023-02-26T20:53:28.998Z,101121.16
2023-02-26T20:55:57.155Z,101117.59
2023-02-26T20:58:24.714Z,101129.78
2023-02-26T21:00:55.121Z,101120.94
2023-02-26T21:03:21.735Z,101120.91
2023-02-26T21:05:49.279Z,101120.03
2023-02-26T21:08:15.907Z,101128.59
2023-02-26T21:10:43.086Z,101124.25
2023-02-26T21:13:09.914Z,101131.16
2023-02-26T21:15:36.908Z,101132.84
2023-02-26T21:18:04.268Z,101129.22
2023-02-26T21:20:31.287Z,101134.38
2023-02-26T21:22:58.819Z,101142.25
2023-02-26T21:25:26.220Z,101139.56
2023-02-26T21:27:53.009Z,101143.16
